Time;durP1;ratioP1;P1;durP2;ratioP2;P2;SDS_P1;SDS_P2;PMS_P1;PMS_P2;Temp;Humidity;BMP_temperature;BMP_pressure;BME280_temperature;BME280_humidity;BME280_pressure;Samples;Min_cycle;Max_cycle;Signal;HPM_P1;HPM_P2
2021/11/18 00:01:55;;;;;;;72.47;44.53;;;6.40;99.90;;;;;;5037723;28;20206;-91
2021/11/18 00:04:22;;;;;;;68.75;42.95;;;6.50;99.90;;;;;;5037336;28;20651;-90
2021/11/18 00:06:49;;;;;;;65.75;40.58;;;6.50;99.90;;;;;;5021531;28;20279;-92
2021/11/18 00:09:20;;;;;;;67.18;42.72;;;6.50;99.90;;;;;;5043792;28;20167;-92
2021/11/18 00:11:46;;;;;;;67.60;41.88;;;6.50;99.90;;;;;;5043173;28;20201;-90
2021/11/18 00:14:13;;;;;;;62.33;39.90;;;6.50;99.90;;;;;;5049790;28;20174;-91
2021/11/18 00:16:39;;;;;;;70.70;43.28;;;6.50;99.90;;;;;;5020619;28;20242;-91
2021/11/18 00:19:08;;;;;;;69.13;44.08;;;6.50;99.90;;;;;;5017183;28;20160;-90
2021/11/18 00:21:37;;;;;;;70.80;44.08;;;6.50;99.90;;;;;;5011179;28;20206;-90
2021/11/18 00:24:05;;;;;;;77.20;45.15;;;6.60;99.90;;;;;;5004476;28;20178;-92
2021/11/18 00:26:31;;;;;;;70.93;42.83;;;6.60;99.90;;;;;;4999678;28;20741;-92
2021/11/18 00:28:59;;;;;;;73.82;46.00;;;6.60;99.90;;;;;;5017496;28;20186;-90
2021/11/18 00:31:28;;;;;;;81.97;45.97;;;6.70;99.90;;;;;;5018720;28;20285;-90
2021/11/18 00:33:55;;;;;;;79.95;46.22;;;6.70;99.90;;;;;;4999755;28;20172;-91
2021/11/18 00:36:21;;;;;;;69.55;43.28;;;6.70;99.90;;;;;;5018560;28;20210;-90
2021/11/18 00:38:47;;;;;;;77.18;46.00;;;6.80;99.90;;;;;;5016748;28;20171;-90
2021/11/18 00:41:14;;;;;;;77.63;45.53;;;6.80;99.90;;;;;;4999427;28;20213;-90
2021/11/18 00:43:41;;;;;;;76.53;45.65;;;6.90;99.90;;;;;;5016854;28;20175;-89
2021/11/18 00:46:07;;;;;;;78.30;45.25;;;6.90;99.90;;;;;;5016730;28;20704;-92
2021/11/18 00:48:33;;;;;;;80.20;48.47;;;7.00;99.90;;;;;;4999491;28;20186;-91
2021/11/18 00:51:14;;;;;;;83.83;49.87;;;7.00;99.90;;;;;;5028843;28;20179;-90
2021/11/18 00:53:46;;;;;;;77.47;47.72;;;7.00;99.90;;;;;;4998724;28;20175;-90
2021/11/18 00:56:13;;;;;;;82.53;47.83;;;7.10;99.90;;;;;;5016537;28;20289;-90
2021/11/18 00:58:39;;;;;;;78.55;47.20;;;7.10;99.90;;;;;;5016287;28;20264;-90
2021/11/18 01:01:05;;;;;;;79.45;48.92;;;7.20;99.90;;;;;;4998815;28;20183;-90
2021/11/18 01:03:32;;;;;;;88.38;48.10;;;7.20;99.90;;;;;;4998809;28;20178;-91
2021/11/18 01:05:58;;;;;;;78.68;47.70;;;7.30;99.90;;;;;;5016059;28;20692;-90
2021/11/18 01:08:24;;;;;;;80.47;48.77;;;7.30;99.90;;;;;;5016017;28;20182;-91
2021/11/18 01:11:21;;;;;;;83.03;47.45;;;7.30;99.90;;;;;;4998560;28;20508;-90
2021/11/18 01:13:49;;;;;;;84.70;48.90;;;7.40;99.90;;;;;;4998504;28;20659;-90
2021/11/18 01:16:19;;;;;;;84.90;48.30;;;7.40;99.90;;;;;;5016015;28;20206;-92
2021/11/18 01:18:45;;;;;;;89.40;48.38;;;7.50;99.90;;;;;;5014842;28;20202;-89
2021/11/18 01:21:11;;;;;;;83.43;47.13;;;7.50;99.90;;;;;;5019600;28;20192;-91
2021/11/18 01:23:39;;;;;;;89.20;48.60;;;7.60;99.90;;;;;;5031065;28;20171;-91
2021/11/18 01:26:07;;;;;;;80.97;47.08;;;7.60;99.90;;;;;;5027865;28;20500;-90
2021/11/18 01:28:34;;;;;;;83.97;48.70;;;7.60;99.90;;;;;;5015352;28;20559;-89
2021/11/18 01:30:59;;;;;;;87.85;47.17;;;7.60;99.90;;;;;;5014440;28;20175;-90
2021/11/18 01:33:26;;;;;;;89.60;46.33;;;7.60;99.90;;;;;;5015602;28;20176;-91
2021/11/18 01:35:52;;;;;;;84.72;46.72;;;7.60;99.90;;;;;;5014262;28;20470;-90
2021/11/18 01:38:18;;;;;;;83.80;49.20;;;7.60;99.90;;;;;;5014357;28;20183;-90
2021/11/18 01:40:49;;;;;;;95.13;48.53;;;7.60;99.90;;;;;;5014483;28;20190;-91
2021/11/18 01:43:17;;;;;;;100.30;50.65;;;7.70;99.90;;;;;;5014331;28;20205;-89
2021/11/18 01:45:44;;;;;;;87.32;48.80;;;7.70;99.90;;;;;;5014312;28;20219;-90
2021/11/18 01:48:10;;;;;;;109.40;51.45;;;7.70;99.90;;;;;;5015048;28;20277;-90
2021/11/18 01:50:38;;;;;;;96.70;50.00;;;7.70;99.90;;;;;;5014445;28;20217;-90
2021/11/18 01:53:09;;;;;;;97.20;49.25;;;7.70;99.90;;;;;;5014017;28;20199;-91
2021/11/18 01:55:35;;;;;;;95.03;48.65;;;7.80;99.90;;;;;;5015668;28;20647;-90
2021/11/18 01:58:01;;;;;;;96.23;45.60;;;7.80;99.90;;;;;;5025205;28;20203;-90
2021/11/18 02:00:35;;;;;;;96.25;46.53;;;7.80;99.90;;;;;;5014210;28;20198;-92
2021/11/18 02:03:01;;;;;;;94.57;46.28;;;7.80;99.90;;;;;;5015231;28;20203;-92
2021/11/18 02:05:30;;;;;;;85.82;46.20;;;7.80;99.90;;;;;;5017726;28;20620;-90
2021/11/18 02:07:56;;;;;;;85.82;44.67;;;7.80;99.90;;;;;;5019271;28;20199;-89
2021/11/18 02:10:29;;;;;;;80.70;41.80;;;7.80;99.90;;;;;;5022158;28;20234;-89
2021/11/18 02:12:57;;;;;;;89.15;43.95;;;7.90;99.90;;;;;;5014249;28;20213;-92
2021/11/18 02:15:30;;;;;;;84.55;43.33;;;7.90;99.90;;;;;;5015280;28;20650;-91
2021/11/18 02:17:57;;;;;;;78.63;40.45;;;7.90;99.90;;;;;;5015133;28;20290;-90
2021/11/18 02:20:33;;;;;;;72.28;39.33;;;7.90;99.90;;;;;;4997624;28;20225;-90
2021/11/18 02:22:59;;;;;;;74.32;40.63;;;7.90;99.90;;;;;;5028388;28;20194;-90
2021/11/18 02:25:29;;;;;;;77.85;38.80;;;8.00;99.90;;;;;;5011423;28;20219;-91
2021/11/18 02:27:56;;;;;;;72.45;41.53;;;8.00;99.90;;;;;;4998087;28;20249;-90
2021/11/18 02:30:23;;;;;;;69.85;37.47;;;8.00;99.90;;;;;;5014996;28;20194;-91
2021/11/18 02:32:50;;;;;;;80.68;40.72;;;8.00;99.90;;;;;;4997368;28;20195;-89
2021/11/18 02:35:29;;;;;;;79.32;40.45;;;8.00;99.90;;;;;;4997417;28;20249;-90
2021/11/18 02:37:56;;;;;;;71.43;40.20;;;8.00;99.90;;;;;;5014666;28;20187;-89
2021/11/18 02:40:24;;;;;;;79.95;38.95;;;8.10;99.90;;;;;;5014751;28;20175;-91
2021/11/18 02:42:50;;;;;;;69.32;36.20;;;8.10;99.90;;;;;;4997333;28;20199;-91
2021/11/18 02:45:20;;;;;;;70.20;38.88;;;8.10;99.90;;;;;;4998131;28;20305;-90
2021/11/18 02:47:46;;;;;;;71.55;39.22;;;8.10;99.90;;;;;;4997905;28;20672;-90
2021/11/18 02:50:16;;;;;;;69.73;36.20;;;8.10;99.90;;;;;;4997464;28;20237;-90
2021/11/18 02:52:41;;;;;;;67.40;35.50;;;8.10;99.90;;;;;;4997444;28;20784;-91
2021/11/18 02:55:17;;;;;;;69.17;37.23;;;8.10;99.90;;;;;;5015785;28;20182;-92
2021/11/18 02:57:43;;;;;;;72.05;36.70;;;8.10;99.90;;;;;;4997411;28;20253;-90
2021/11/18 03:00:12;;;;;;;71.53;38.50;;;8.20;99.90;;;;;;5003036;28;20644;-92
2021/11/18 03:02:38;;;;;;;63.78;35.78;;;8.10;99.90;;;;;;5030115;28;20202;-91
2021/11/18 03:05:06;;;;;;;69.53;35.67;;;8.20;99.90;;;;;;5014996;28;20298;-90
2021/11/18 03:07:33;;;;;;;67.05;34.92;;;8.20;99.90;;;;;;5007738;28;20309;-91
2021/11/18 03:09:59;;;;;;;60.80;34.45;;;8.20;99.90;;;;;;4997270;28;20197;-91
2021/11/18 03:12:24;;;;;;;65.30;35.10;;;8.20;99.90;;;;;;4996850;28;20636;-91
2021/11/18 03:14:50;;;;;;;73.83;36.67;;;8.20;99.90;;;;;;5000259;28;20182;-91
2021/11/18 03:17:16;;;;;;;63.13;34.15;;;8.20;99.90;;;;;;5008694;28;20241;-91
2021/11/18 03:19:42;;;;;;;63.20;36.33;;;8.20;99.90;;;;;;5020062;28;20175;-90
2021/11/18 03:22:08;;;;;;;62.03;33.50;;;8.20;99.90;;;;;;5020056;28;20530;-89
2021/11/18 03:24:33;;;;;;;60.90;33.40;;;8.20;99.90;;;;;;5020173;28;20179;-91
2021/11/18 03:26:59;;;;;;;60.97;30.70;;;8.20;99.90;;;;;;5020183;28;20233;-90
2021/11/18 03:29:26;;;;;;;60.10;31.67;;;8.20;99.90;;;;;;5038005;28;20167;-91
2021/11/18 03:32:10;;;;;;;58.70;31.25;;;8.20;99.90;;;;;;5020153;28;20206;-91
2021/11/18 03:34:36;;;;;;;57.65;30.00;;;8.20;99.90;;;;;;5020086;28;20183;-90
2021/11/18 03:37:03;;;;;;;54.70;28.50;;;8.30;99.90;;;;;;5020004;28;20297;-91
2021/11/18 03:39:28;;;;;;;56.92;31.85;;;8.30;99.90;;;;;;5028868;28;20182;-91
2021/11/18 03:41:59;;;;;;;52.57;29.20;;;8.20;99.90;;;;;;5038147;28;20206;-92
2021/11/18 03:44:25;;;;;;;48.92;27.70;;;8.20;99.90;;;;;;5019593;28;20653;-93
2021/11/18 03:46:59;;;;;;;55.30;29.17;;;8.20;99.90;;;;;;5037655;28;20296;-90
2021/11/18 03:49:26;;;;;;;48.22;27.63;;;8.20;99.90;;;;;;5037312;28;20218;-89
2021/11/18 03:51:54;;;;;;;51.97;29.45;;;8.20;99.90;;;;;;5037145;28;20202;-89
2021/11/18 03:54:22;;;;;;;50.80;25.67;;;8.20;99.90;;;;;;5037241;28;20245;-92
2021/11/18 03:56:48;;;;;;;51.78;27.70;;;8.20;99.90;;;;;;5019609;28;20575;-92
2021/11/18 03:59:34;;;;;;;44.05;25.40;;;8.20;99.90;;;;;;5019875;28;20174;-91
2021/11/18 04:02:01;;;;;;;51.47;27.40;;;8.20;99.90;;;;;;5019593;28;20198;-90
2021/11/18 04:04:31;;;;;;;51.17;26.33;;;8.20;99.90;;;;;;5038390;28;20170;-90
2021/11/18 04:06:57;;;;;;;56.70;25.60;;;8.20;99.90;;;;;;5021189;28;20607;-92
2021/11/18 04:09:22;;;;;;;45.80;27.13;;;8.20;99.90;;;;;;5026949;28;20193;-89
2021/11/18 04:11:52;;;;;;;52.70;27.40;;;8.20;99.90;;;;;;5030136;28;20198;-89
2021/11/18 04:14:18;;;;;;;49.88;26.38;;;8.30;99.90;;;;;;5037995;28;20194;-90
2021/11/18 04:16:45;;;;;;;45.95;26.45;;;8.30;99.90;;;;;;5020296;28;20253;-90
2021/11/18 04:19:12;;;;;;;47.63;26.73;;;8.30;99.90;;;;;;5019328;28;20265;-90
2021/11/18 04:21:41;;;;;;;48.63;25.17;;;8.30;99.90;;;;;;5019196;28;20218;-90
2021/11/18 04:24:08;;;;;;;55.47;28.77;;;8.40;99.90;;;;;;5036431;28;20167;-91
2021/11/18 04:26:35;;;;;;;47.38;26.90;;;8.40;99.90;;;;;;5036171;28;20312;-90
2021/11/18 04:29:01;;;;;;;48.33;27.05;;;8.40;99.90;;;;;;5039189;28;20181;-91
2021/11/18 04:31:30;;;;;;;51.20;28.88;;;8.40;99.90;;;;;;5019897;28;20558;-90
2021/11/18 04:33:56;;;;;;;49.72;28.30;;;8.50;99.90;;;;;;5036695;28;20166;-92
2021/11/18 04:36:23;;;;;;;49.25;27.23;;;8.50;99.90;;;;;;5036736;28;20213;-90
2021/11/18 04:38:52;;;;;;;58.50;31.50;;;8.50;99.90;;;;;;5018615;28;20174;-90
2021/11/18 04:41:18;;;;;;;54.70;28.70;;;8.50;99.90;;;;;;5018588;28;20214;-91
2021/11/18 04:43:44;;;;;;;53.15;30.67;;;8.50;99.90;;;;;;5035992;28;20217;-91
2021/11/18 04:46:12;;;;;;;53.77;28.77;;;8.50;99.90;;;;;;5036312;28;20603;-92
2021/11/18 04:48:39;;;;;;;53.20;27.80;;;8.50;99.90;;;;;;5038984;28;20202;-90
2021/11/18 04:51:06;;;;;;;51.63;28.80;;;8.50;99.90;;;;;;5025933;28;20194;-92
2021/11/18 04:53:34;;;;;;;51.22;29.25;;;8.50;99.90;;;;;;5041822;28;20202;-90
2021/11/18 04:56:00;;;;;;;55.50;30.55;;;8.50;99.90;;;;;;5018923;28;20209;-90
2021/11/18 04:58:26;;;;;;;52.88;28.67;;;8.40;99.90;;;;;;5018822;28;20220;-92
2021/11/18 05:00:54;;;;;;;55.10;28.77;;;8.40;99.90;;;;;;5023123;28;20589;-91
2021/11/18 05:03:22;;;;;;;52.78;29.30;;;8.40;99.90;;;;;;5035838;28;20546;-91
2021/11/18 05:05:48;;;;;;;48.75;28.65;;;8.40;99.90;;;;;;5036028;28;20671;-92
2021/11/18 05:08:15;;;;;;;54.25;30.92;;;8.30;99.90;;;;;;5018107;28;20289;-90
2021/11/18 05:10:43;;;;;;;56.95;29.40;;;8.30;99.90;;;;;;5018106;28;20178;-90
2021/11/18 05:13:09;;;;;;;55.75;28.20;;;8.40;99.90;;;;;;5017977;28;20691;-90
2021/11/18 05:15:39;;;;;;;56.72;27.48;;;8.40;99.90;;;;;;5035716;28;20180;-92
2021/11/18 05:18:06;;;;;;;58.08;28.95;;;8.40;99.90;;;;;;5017676;28;20628;-92
2021/11/18 05:20:32;;;;;;;40.90;24.20;;;8.50;99.90;;;;;;5018057;28;20188;-92
2021/11/18 05:22:58;;;;;;;56.47;29.42;;;8.50;99.90;;;;;;5017906;28;20209;-92
2021/11/18 05:25:28;;;;;;;51.40;26.85;;;8.50;99.90;;;;;;5017056;28;20210;-89
2021/11/18 05:27:54;;;;;;;49.35;27.50;;;8.60;99.90;;;;;;5017727;28;20202;-92
2021/11/18 05:30:23;;;;;;;45.45;25.00;;;8.60;99.90;;;;;;5020245;28;20224;-92
2021/11/18 05:32:49;;;;;;;45.80;26.42;;;8.60;99.90;;;;;;5036853;28;20234;-92
2021/11/18 05:35:15;;;;;;;46.37;24.10;;;8.60;99.90;;;;;;5015812;28;20210;-91
2021/11/18 05:37:41;;;;;;;49.60;27.07;;;8.60;99.90;;;;;;5015189;28;20574;-90
2021/11/18 05:40:08;;;;;;;52.50;27.00;;;8.70;99.90;;;;;;5015289;28;20402;-92
2021/11/18 05:42:36;;;;;;;47.63;27.13;;;8.70;99.90;;;;;;5015662;28;20523;-92
2021/11/18 05:45:05;;;;;;;46.25;25.67;;;8.70;99.90;;;;;;5015992;28;20538;-89
2021/11/18 05:47:31;;;;;;;46.17;25.20;;;8.70;99.90;;;;;;5047912;28;20216;-89
2021/11/18 05:49:59;;;;;;;47.77;24.90;;;8.70;99.90;;;;;;5061688;28;20618;-91
2021/11/18 05:52:26;;;;;;;50.20;26.52;;;8.80;99.90;;;;;;5035362;28;20202;-91
2021/11/18 05:54:53;;;;;;;45.72;24.20;;;8.80;99.90;;;;;;5040724;28;20196;-92
2021/11/18 05:57:18;;;;;;;42.83;24.80;;;8.80;99.90;;;;;;5058230;28;20200;-91
2021/11/18 05:59:44;;;;;;;42.20;25.40;;;8.80;99.90;;;;;;5054986;28;20249;-91
2021/11/18 06:02:10;;;;;;;86.63;49.30;;;8.80;99.90;;;;;;5035842;28;20198;-90
2021/11/18 06:04:35;;;;;;;79.63;46.67;;;8.70;99.90;;;;;;5039377;28;20219;-89
2021/11/18 06:07:03;;;;;;;66.10;39.50;;;8.80;99.90;;;;;;5044450;28;20233;-90
2021/11/18 06:09:28;;;;;;;52.97;33.45;;;8.80;99.90;;;;;;5041545;28;20278;-92
2021/11/18 06:11:54;;;;;;;50.80;28.20;;;8.80;99.90;;;;;;5040422;28;20733;-88
2021/11/18 06:14:20;;;;;;;42.43;24.80;;;8.80;99.90;;;;;;5026668;28;20190;-90
2021/11/18 06:16:46;;;;;;;38.97;22.98;;;8.80;99.90;;;;;;5021121;28;20242;-90
2021/11/18 06:19:12;;;;;;;40.43;22.80;;;8.80;99.90;;;;;;5027309;28;20182;-92
2021/11/18 06:21:41;;;;;;;38.90;23.25;;;8.80;99.90;;;;;;5032249;28;20285;-90
2021/11/18 06:24:12;;;;;;;48.03;26.85;;;8.80;99.90;;;;;;5027011;28;20178;-92
2021/11/18 06:26:37;;;;;;;41.42;23.08;;;8.80;99.90;;;;;;5012063;28;20317;-92
2021/11/18 06:29:04;;;;;;;40.03;23.80;;;8.80;99.90;;;;;;5031712;28;20285;-90
2021/11/18 06:31:30;;;;;;;33.35;21.48;;;8.80;99.90;;;;;;5031361;28;20488;-90
2021/11/18 06:33:57;;;;;;;36.03;20.42;;;8.80;99.90;;;;;;5035077;28;20166;-92
2021/11/18 06:36:24;;;;;;;33.05;19.90;;;8.80;99.90;;;;;;5031318;28;20203;-91
2021/11/18 06:38:51;;;;;;;31.48;19.48;;;8.70;99.90;;;;;;5029679;28;20206;-91
2021/11/18 06:41:19;;;;;;;38.42;20.05;;;8.70;99.90;;;;;;5030288;28;20202;-90
2021/11/18 06:43:45;;;;;;;36.05;18.90;;;8.70;99.90;;;;;;5031782;28;20170;-91
2021/11/18 06:46:11;;;;;;;34.28;18.02;;;8.70;99.90;;;;;;5030253;28;20249;-91
2021/11/18 06:48:37;;;;;;;34.13;19.20;;;8.70;99.90;;;;;;5016742;28;20636;-90
2021/11/18 06:51:07;;;;;;;37.17;21.63;;;8.70;99.90;;;;;;5038229;28;20209;-92
2021/11/18 06:53:35;;;;;;;33.55;18.80;;;8.70;99.90;;;;;;5051094;28;20443;-92
2021/11/18 06:56:02;;;;;;;30.63;17.67;;;8.70;99.90;;;;;;5038232;28;20261;-93
2021/11/18 06:58:28;;;;;;;27.90;16.70;;;8.70;99.90;;;;;;5035468;28;20186;-92
2021/11/18 07:00:53;;;;;;;28.03;16.53;;;8.70;99.90;;;;;;5034772;28;20721;-91
2021/11/18 07:03:19;;;;;;;29.17;16.10;;;8.70;99.90;;;;;;5035368;28;20483;-91
2021/11/18 07:05:45;;;;;;;32.20;16.90;;;8.60;99.90;;;;;;5035266;28;20214;-90
2021/11/18 07:08:11;;;;;;;25.00;16.50;;;8.60;99.90;;;;;;5036095;28;20369;-90
2021/11/18 07:10:39;;;;;;;26.95;16.13;;;8.60;99.90;;;;;;5036218;28;20187;-92
2021/11/18 07:13:06;;;;;;;27.08;15.20;;;8.70;99.90;;;;;;5032540;28;20195;-90
2021/11/18 07:15:32;;;;;;;30.48;17.50;;;8.60;99.90;;;;;;5029363;28;20191;-92
2021/11/18 07:17:58;;;;;;;23.53;15.50;;;8.70;99.90;;;;;;5044574;28;20237;-91
2021/11/18 07:20:25;;;;;;;24.60;14.88;;;8.70;99.90;;;;;;5037498;28;20411;-90
2021/11/18 07:22:52;;;;;;;24.85;14.40;;;8.70;99.90;;;;;;5037963;28;20225;-92
2021/11/18 07:25:21;;;;;;;25.42;15.63;;;8.60;99.90;;;;;;5052652;28;20209;-91
2021/11/18 07:27:47;;;;;;;27.25;14.90;;;8.60;99.90;;;;;;5056663;28;20204;-91
2021/11/18 07:30:15;;;;;;;28.47;17.23;;;8.60;99.90;;;;;;5039273;28;20193;-93
2021/11/18 07:32:42;;;;;;;38.22;21.13;;;8.60;99.90;;;;;;5039513;28;20489;-92
2021/11/18 07:35:08;;;;;;;31.13;18.40;;;8.60;99.90;;;;;;5052804;28;20200;-91
2021/11/18 07:37:35;;;;;;;32.05;20.15;;;8.60;99.90;;;;;;5053973;28;20613;-92
2021/11/18 07:40:03;;;;;;;26.42;15.85;;;8.60;99.90;;;;;;5042317;28;20221;-90
2021/11/18 07:42:28;;;;;;;24.88;13.80;;;8.60;99.90;;;;;;5024932;28;20206;-92
2021/11/18 07:44:54;;;;;;;24.57;14.80;;;8.60;99.90;;;;;;5027959;28;20590;-91
2021/11/18 07:47:20;;;;;;;20.70;13.23;;;8.60;99.90;;;;;;5024599;28;20240;-91
2021/11/18 07:49:45;;;;;;;22.23;13.70;;;8.60;99.90;;;;;;5029029;28;20174;-89
2021/11/18 07:52:11;;;;;;;21.60;13.23;;;8.60;99.90;;;;;;5034859;28;20288;-92
2021/11/18 07:54:36;;;;;;;23.70;13.73;;;8.60;99.90;;;;;;5018384;28;20726;-90
2021/11/18 07:57:02;;;;;;;24.13;13.73;;;8.60;99.90;;;;;;5054499;28;20208;-89
2021/11/18 07:59:28;;;;;;;23.33;14.30;;;8.60;99.90;;;;;;5023046;28;20185;-91
2021/11/18 08:01:54;;;;;;;20.87;14.30;;;8.70;99.90;;;;;;5025229;28;20450;-92
2021/11/18 08:04:20;;;;;;;26.30;15.00;;;8.70;99.90;;;;;;5043188;28;20493;-92
2021/11/18 08:06:47;;;;;;;22.90;15.37;;;8.70;99.90;;;;;;5049039;28;20456;-90
2021/11/18 08:09:13;;;;;;;23.23;15.00;;;8.70;99.90;;;;;;5055560;28;20897;-92
2021/11/18 08:11:49;;;;;;;23.58;15.13;;;8.70;99.90;;;;;;5028446;28;20637;-91
2021/11/18 08:14:16;;;;;;;23.75;14.82;;;8.70;99.90;;;;;;5026423;28;20544;-92
2021/11/18 08:16:43;;;;;;;26.52;17.13;;;8.70;99.90;;;;;;5045562;28;20245;-93
2021/11/18 08:19:09;;;;;;;23.35;14.80;;;8.80;99.90;;;;;;5029988;28;20181;-90
2021/11/18 08:21:36;;;;;;;20.98;14.35;;;8.80;99.90;;;;;;5023556;28;20300;-91
2021/11/18 08:24:03;;;;;;;22.55;12.98;;;8.80;99.90;;;;;;5038690;28;20182;-90
2021/11/18 08:26:30;;;;;;;27.15;19.45;;;8.80;99.90;;;;;;5027699;28;20329;-93
2021/11/18 08:28:56;;;;;;;20.23;14.02;;;8.80;99.90;;;;;;5030019;28;20216;-92
2021/11/18 08:31:23;;;;;;;22.50;14.07;;;8.90;99.90;;;;;;5029098;28;20245;-90
2021/11/18 08:33:50;;;;;;;20.92;14.35;;;8.90;99.90;;;;;;5047696;28;20186;-91
2021/11/18 08:36:16;;;;;;;24.40;13.98;;;8.90;99.90;;;;;;5029044;28;20219;-90
2021/11/18 08:38:42;;;;;;;23.43;14.60;;;8.90;99.90;;;;;;5037448;28;20231;-93
2021/11/18 08:41:10;;;;;;;25.87;14.80;;;8.90;99.90;;;;;;5023180;28;20553;-90
2021/11/18 08:43:39;;;;;;;23.90;15.02;;;9.00;99.90;;;;;;5032850;28;20522;-91
2021/11/18 08:46:08;;;;;;;21.98;13.93;;;9.00;99.90;;;;;;5040158;28;20222;-89
2021/11/18 08:48:35;;;;;;;22.08;12.50;;;9.00;99.90;;;;;;5054603;28;20543;-92
2021/11/18 08:51:04;;;;;;;28.98;14.07;;;9.00;99.90;;;;;;5036567;28;20220;-93
2021/11/18 08:53:33;;;;;;;21.13;13.48;;;9.00;99.90;;;;;;5034655;28;20182;-90
2021/11/18 08:56:00;;;;;;;22.38;14.57;;;9.00;99.90;;;;;;5023651;28;20194;-91
2021/11/18 08:58:34;;;;;;;23.23;14.75;;;9.00;99.90;;;;;;5029321;28;20181;-90
2021/11/18 09:01:09;;;;;;;20.63;12.30;;;9.00;99.90;;;;;;5049619;28;20217;-90
2021/11/18 09:03:36;;;;;;;19.45;12.50;;;9.00;99.90;;;;;;5049731;28;20575;-92
2021/11/18 09:06:04;;;;;;;20.17;13.50;;;9.00;99.90;;;;;;5033798;28;20221;-93
2021/11/18 09:08:33;;;;;;;19.90;12.20;;;9.00;99.90;;;;;;5029838;28;20178;-91
2021/11/18 09:10:59;;;;;;;18.80;11.30;;;9.00;99.90;;;;;;5039789;28;20261;-92
2021/11/18 09:13:25;;;;;;;21.70;13.77;;;9.10;99.90;;;;;;5026157;28;20201;-90
2021/11/18 09:15:53;;;;;;;19.43;12.37;;;9.20;99.90;;;;;;5042921;28;20572;-91
2021/11/18 09:18:19;;;;;;;17.67;11.13;;;9.30;99.90;;;;;;5023153;28;20445;-95
2021/11/18 09:20:47;;;;;;;20.20;12.93;;;9.40;99.90;;;;;;5053998;28;20192;-91
2021/11/18 09:23:14;;;;;;;15.18;10.27;;;9.40;99.90;;;;;;5046843;28;20459;-94
2021/11/18 09:25:44;;;;;;;18.08;12.60;;;9.40;99.90;;;;;;5042405;28;20252;-90
2021/11/18 09:28:12;;;;;;;22.02;13.15;;;9.50;99.90;;;;;;5049603;28;20237;-92
2021/11/18 09:30:43;;;;;;;15.73;10.20;;;9.50;99.90;;;;;;5047892;28;20185;-91
2021/11/18 09:33:10;;;;;;;18.92;12.25;;;9.50;99.90;;;;;;5033730;28;20237;-92
2021/11/18 09:35:39;;;;;;;15.48;10.30;;;9.60;99.90;;;;;;5042468;28;20228;-91
2021/11/18 09:38:06;;;;;;;19.73;12.10;;;9.60;99.90;;;;;;5036122;28;20226;-92
2021/11/18 09:40:45;;;;;;;18.17;11.52;;;9.60;99.90;;;;;;5051175;28;20188;-94
2021/11/18 09:44:05;;;;;;;19.42;12.68;;;9.60;99.90;;;;;;5036806;28;20220;-91
2021/11/18 09:46:36;;;;;;;21.48;13.30;;;9.60;99.90;;;;;;4955070;29;20221;-91
2021/11/18 09:49:11;;;;;;;18.70;11.57;;;9.60;99.90;;;;;;5015217;28;20186;-93
2021/11/18 09:51:46;;;;;;;20.13;12.90;;;9.60;99.90;;;;;;5043288;28;20197;-90
2021/11/18 09:54:52;;;;;;;20.63;12.90;;;9.60;99.90;;;;;;5035117;28;20280;-91
2021/11/18 09:57:28;;;;;;;16.60;11.35;;;9.60;99.90;;;;;;5044826;28;20224;-94
2021/11/18 10:00:23;;;;;;;18.02;12.05;;;9.70;99.90;;;;;;5032652;28;20170;-90
2021/11/18 10:03:22;;;;;;;16.55;10.60;;;9.70;99.90;;;;;;5034772;28;20229;-92
2021/11/18 10:06:10;;;;;;;17.67;11.93;;;9.70;99.90;;;;;;5036050;28;20217;-93
2021/11/18 10:09:11;;;;;;;18.85;11.32;;;9.80;99.90;;;;;;5023600;28;20186;-93
2021/11/18 10:12:08;;;;;;;22.98;11.65;;;9.80;99.90;;;;;;5034688;28;20292;-90
2021/11/18 10:14:42;;;;;;;18.42;11.10;;;9.90;99.90;;;;;;5044877;28;20178;-91
2021/11/18 10:17:14;;;;;;;18.63;12.05;;;10.00;99.90;;;;;;5044266;28;20262;-93
2021/11/18 10:19:46;;;;;;;17.92;11.38;;;10.20;99.90;;;;;;5013829;28;20185;-88
2021/11/18 10:22:12;;;;;;;19.48;11.95;;;10.30;99.90;;;;;;5002575;28;20218;-91
2021/11/18 10:24:41;;;;;;;17.70;11.07;;;10.40;99.90;;;;;;5005203;28;20179;-91
2021/11/18 10:27:18;;;;;;;16.40;11.90;;;10.50;99.90;;;;;;5010407;28;20458;-91
2021/11/18 10:30:19;;;;;;;15.70;10.85;;;10.60;99.90;;;;;;5004526;28;20202;-90
2021/11/18 10:32:54;;;;;;;15.93;11.15;;;10.70;99.90;;;;;;5002725;28;20745;-90
2021/11/18 10:35:32;;;;;;;15.70;11.68;;;10.80;99.90;;;;;;5022334;28;20236;-93
2021/11/18 10:38:32;;;;;;;18.55;11.65;;;10.80;99.90;;;;;;5024754;28;20216;-89
2021/11/18 10:41:11;;;;;;;15.55;11.77;;;10.70;99.90;;;;;;4974905;28;20202;-91
2021/11/18 10:43:39;;;;;;;15.13;11.13;;;10.70;99.90;;;;;;5012673;28;20206;-92
2021/11/18 10:46:30;;;;;;;16.48;11.23;;;10.60;99.90;;;;;;4997017;28;20241;-90
2021/11/18 10:49:11;;;;;;;18.10;12.25;;;10.60;99.90;;;;;;5020257;28;20222;-91
2021/11/18 10:51:51;;;;;;;15.32;11.10;;;10.60;99.90;;;;;;5017558;28;20251;-91
2021/11/18 10:54:37;;;;;;;16.30;11.57;;;10.50;99.90;;;;;;5015795;28;20191;-89
2021/11/18 10:57:22;;;;;;;14.07;11.00;;;10.50;99.90;;;;;;5019253;28;20263;-90
2021/11/18 10:59:51;;;;;;;14.10;10.23;;;10.60;99.90;;;;;;5011890;28;20206;-90
2021/11/18 11:02:33;;;;;;;14.68;10.50;;;10.80;99.90;;;;;;5000566;28;20203;-92
2021/11/18 11:05:20;;;;;;;16.50;10.90;;;11.00;99.90;;;;;;5005678;28;20652;-90
2021/11/18 11:07:45;;;;;;;16.70;10.27;;;11.10;99.90;;;;;;5001334;28;20269;-91
2021/11/18 11:10:19;;;;;;;13.77;9.70;;;11.20;99.90;;;;;;5004175;28;20211;-91
2021/11/18 11:13:09;;;;;;;14.35;9.85;;;11.20;99.90;;;;;;5007189;28;20727;-89
2021/11/18 11:15:41;;;;;;;15.48;10.68;;;11.20;99.90;;;;;;5007873;28;20186;-93
2021/11/18 11:18:22;;;;;;;14.40;10.70;;;11.20;99.90;;;;;;5040845;28;20842;-91
2021/11/18 11:20:54;;;;;;;13.77;10.80;;;11.10;99.90;;;;;;5038933;28;20178;-92
2021/11/18 11:23:57;;;;;;;15.85;10.75;;;11.10;99.90;;;;;;5042068;28;20687;-92
2021/11/18 11:26:48;;;;;;;18.10;11.82;;;11.20;99.90;;;;;;5036172;28;20214;-92
2021/11/18 11:29:39;;;;;;;15.02;10.18;;;11.30;99.90;;;;;;5034309;28;20221;-91
2021/11/18 11:32:43;;;;;;;14.43;9.90;;;11.40;99.90;;;;;;5027651;28;20710;-90
2021/11/18 11:35:42;;;;;;;15.30;10.60;;;11.50;99.90;;;;;;5021537;28;20212;-90
2021/11/18 11:38:37;;;;;;;14.60;10.20;;;11.60;99.90;;;;;;5031720;28;20776;-92
2021/11/18 11:41:33;;;;;;;14.70;10.32;;;11.70;99.90;;;;;;5013093;28;20197;-92
2021/11/18 11:44:25;;;;;;;14.70;10.30;;;11.70;99.90;;;;;;5023607;28;20309;-90
2021/11/18 11:47:48;;;;;;;16.95;11.35;;;11.80;99.90;;;;;;5030396;28;20229;-92
2021/11/18 11:50:40;;;;;;;14.20;10.73;;;11.80;99.90;;;;;;4955866;28;20220;-92
2021/11/18 11:53:33;;;;;;;17.38;9.90;;;11.80;99.90;;;;;;5054622;28;20494;-90
2021/11/18 11:56:27;;;;;;;13.43;9.35;;;11.80;99.90;;;;;;5042799;28;20181;-93
2021/11/18 11:59:25;;;;;;;14.48;10.25;;;11.90;99.90;;;;;;5032090;28;20642;-93
2021/11/18 12:02:30;;;;;;;14.13;10.37;;;12.00;99.90;;;;;;5022177;28;20221;-90
2021/11/18 12:05:15;;;;;;;12.20;9.77;;;12.10;99.90;;;;;;5024418;28;20481;-92
2021/11/18 12:08:00;;;;;;;12.87;8.93;;;12.20;99.90;;;;;;5034312;28;20425;-91
2021/11/18 12:10:41;;;;;;;17.70;13.43;;;12.30;99.90;;;;;;5048218;28;20420;-95
2021/11/18 12:13:31;;;;;;;12.70;9.77;;;12.30;99.90;;;;;;5037407;28;20498;-91
2021/11/18 12:16:05;;;;;;;18.83;12.07;;;12.40;99.90;;;;;;5037096;28;20420;-91
2021/11/18 12:18:41;;;;;;;12.77;8.90;;;12.50;99.90;;;;;;5018730;28;20325;-93
2021/11/18 12:21:08;;;;;;;11.53;8.53;;;12.60;99.90;;;;;;5019555;28;20510;-90
2021/11/18 12:24:02;;;;;;;12.10;9.40;;;12.70;99.90;;;;;;5024231;28;20465;-90
2021/11/18 12:26:41;;;;;;;13.97;10.10;;;12.80;99.90;;;;;;5027048;28;20855;-92
2021/11/18 12:29:16;;;;;;;13.40;9.63;;;12.90;99.90;;;;;;5049781;28;20426;-91
2021/11/18 12:32:13;;;;;;;12.53;9.80;;;13.00;99.90;;;;;;5046092;28;20442;-91
2021/11/18 12:34:50;;;;;;;11.77;8.70;;;13.00;99.90;;;;;;5017277;28;21189;-90
2021/11/18 12:37:34;;;;;;;11.80;9.60;;;13.10;99.90;;;;;;5035291;28;20478;-91
2021/11/18 12:40:22;;;;;;;11.60;9.63;;;13.20;99.90;;;;;;5017893;28;20442;-92
2021/11/18 12:43:23;;;;;;;12.60;9.90;;;13.20;99.90;;;;;;5034590;28;20471;-90
2021/11/18 12:45:55;;;;;;;11.37;9.87;;;13.30;99.90;;;;;;5033592;28;20547;-89
2021/11/18 12:48:23;;;;;;;14.67;10.60;;;13.40;99.90;;;;;;5018669;28;20450;-90
2021/11/18 12:50:52;;;;;;;14.33;10.07;;;13.40;99.90;;;;;;5017955;28;20535;-90
2021/11/18 12:53:26;;;;;;;11.63;9.70;;;13.40;99.90;;;;;;5040914;28;20450;-90
2021/11/18 12:56:10;;;;;;;11.77;9.10;;;13.30;99.90;;;;;;5033703;28;20858;-92
2021/11/18 12:58:43;;;;;;;12.73;11.00;;;13.30;99.90;;;;;;5013002;28;20504;-91